This is the latest recevied weather packets stored in our database for station/object KW4UJ. If no packets are shown the sender has not sent any weather packets the latest 10 day(s).
| Time | Temp. | Humidity | Pressure | Rain* | Wind** | Luminosity | Snow |
|---|---|---|---|---|---|---|---|
| 1777339581 | 14.44° C | 67% | 1023.3 hPa | 0 mm | - | 0 W/m² | - |
| 1777339278 | 15° C | 66% | 1023.2 hPa | 0 mm | - | 0 W/m² | - |
| 1777338976 | 15° C | 66% | 1023.3 hPa | 0 mm | - | 0 W/m² | - |
| 1777338672 | 15° C | 65% | 1023.1 hPa | 0 mm | - | 0 W/m² | - |
| 1777338371 | 15° C | 65% | 1023.1 hPa | 0 mm | - | 0 W/m² | - |
| 1777338067 | 14.44° C | 67% | 1022.9 hPa | 0 mm | - | 0 W/m² | - |
| 1777337763 | 14.44° C | 66% | 1023.1 hPa | 0 mm | - | 0 W/m² | - |
| 1777337460 | 14.44° C | 67% | 1022.9 hPa | 0 mm | - | 0 W/m² | - |
| 1777337157 | 14.44° C | 66% | 1022.9 hPa | 0 mm | - | 0 W/m² | - |
| 1777336855 | 15° C | 65% | 1023 hPa | 0 mm | - | 0 W/m² | - |
| 1777336554 | 15° C | 65% | 1023.1 hPa | 0 mm | - | 0 W/m² | - |
| 1777336251 | 15.56° C | 63% | 1022.9 hPa | 0 mm | - | 0 W/m² | - |
| 1777335948 | 15.56° C | 62% | 1023 hPa | 0 mm | - | 0 W/m² | - |
| 1777335645 | 16.11° C | 61% | 1022.8 hPa | 0 mm | - | 0 W/m² | - |
| 1777335342 | 16.11° C | 61% | 1023 hPa | 0 mm | - | 0 W/m² | - |
| 1777335039 | 16.67° C | 60% | 1022.9 hPa | 0 mm | - | 0 W/m² | - |
| 1777334737 | 16.67° C | 58% | 1022.8 hPa | 0 mm | - | 1 W/m² | - |
| 1777334434 | 17.22° C | 57% | 1022.9 hPa | 0 mm | - | 1 W/m² | - |
| 1777334131 | 17.22° C | 56% | 1022.8 hPa | 0 mm | - | 2 W/m² | - |
| 1777333830 | 17.22° C | 55% | 1022.9 hPa | 0 mm | - | 4 W/m² | - |
| 1777333527 | 17.78° C | 52% | 1022.7 hPa | 0 mm | - | 6 W/m² | - |
| 1777333224 | 17.78° C | 50% | 1023 hPa | 0 mm | - | 8 W/m² | - |
| 1777332922 | 17.78° C | 50% | 1022.7 hPa | 0 mm | - | 11 W/m² | - |
| 1777332620 | 18.33° C | 50% | 1022.8 hPa | 0 mm | - | 15 W/m² | - |
| 1777332316 | 18.33° C | 49% | 1022.7 hPa | 0 mm | - | 19 W/m² | - |
* Rain latest hour (hover to see other rain measurements)
** Current wind speed in m/s (hover to see current wind gust speed)